sensor_id;sensor_type;location;lat;lon;timestamp;P1;durP1;ratioP1;P2;durP2;ratioP2
71435;SDS011;59251;51.326;12.370;2023-02-15T00:00:25;45.42;;;17.77;;
71435;SDS011;59251;51.326;12.370;2023-02-15T00:02:50;43.70;;;18.63;;
71435;SDS011;59251;51.326;12.370;2023-02-15T00:05:16;38.95;;;16.98;;
71435;SDS011;59251;51.326;12.370;2023-02-15T00:07:41;41.87;;;18.00;;
71435;SDS011;59251;51.326;12.370;2023-02-15T00:10:07;47.10;;;19.10;;
71435;SDS011;59251;51.326;12.370;2023-02-15T00:12:33;44.05;;;17.67;;
71435;SDS011;59251;51.326;12.370;2023-02-15T00:14:58;45.07;;;18.80;;
71435;SDS011;59251;51.326;12.370;2023-02-15T00:17:23;59.77;;;23.83;;
71435;SDS011;59251;51.326;12.370;2023-02-15T00:19:49;63.53;;;22.37;;
71435;SDS011;59251;51.326;12.370;2023-02-15T00:22:14;66.53;;;24.83;;
71435;SDS011;59251;51.326;12.370;2023-02-15T00:24:40;69.65;;;24.52;;
71435;SDS011;59251;51.326;12.370;2023-02-15T00:27:05;62.93;;;23.47;;
71435;SDS011;59251;51.326;12.370;2023-02-15T00:29:30;53.37;;;20.87;;
71435;SDS011;59251;51.326;12.370;2023-02-15T00:31:56;56.63;;;22.17;;
71435;SDS011;59251;51.326;12.370;2023-02-15T00:34:23;53.20;;;19.90;;
71435;SDS011;59251;51.326;12.370;2023-02-15T00:36:50;50.37;;;19.00;;
71435;SDS011;59251;51.326;12.370;2023-02-15T00:39:15;46.28;;;18.63;;
71435;SDS011;59251;51.326;12.370;2023-02-15T00:41:42;45.33;;;17.87;;
71435;SDS011;59251;51.326;12.370;2023-02-15T00:44:07;40.42;;;17.80;;
71435;SDS011;59251;51.326;12.370;2023-02-15T00:46:33;45.37;;;17.70;;
71435;SDS011;59251;51.326;12.370;2023-02-15T00:48:59;42.20;;;17.65;;
71435;SDS011;59251;51.326;12.370;2023-02-15T00:51:25;39.83;;;16.97;;
71435;SDS011;59251;51.326;12.370;2023-02-15T00:53:50;38.28;;;17.40;;
71435;SDS011;59251;51.326;12.370;2023-02-15T00:56:16;37.23;;;16.57;;
71435;SDS011;59251;51.326;12.370;2023-02-15T00:58:41;40.33;;;16.43;;
71435;SDS011;59251;51.326;12.370;2023-02-15T01:01:08;39.72;;;15.93;;
71435;SDS011;59251;51.326;12.370;2023-02-15T01:03:35;38.78;;;16.65;;
71435;SDS011;59251;51.326;12.370;2023-02-15T01:06:01;38.93;;;16.17;;
71435;SDS011;59251;51.326;12.370;2023-02-15T01:08:27;40.40;;;17.27;;
71435;SDS011;59251;51.326;12.370;2023-02-15T01:10:53;35.30;;;15.97;;
71435;SDS011;59251;51.326;12.370;2023-02-15T01:13:19;37.03;;;15.57;;
71435;SDS011;59251;51.326;12.370;2023-02-15T01:15:44;40.17;;;16.67;;
71435;SDS011;59251;51.326;12.370;2023-02-15T01:18:10;36.43;;;15.60;;
71435;SDS011;59251;51.326;12.370;2023-02-15T01:20:38;35.40;;;15.43;;
71435;SDS011;59251;51.326;12.370;2023-02-15T01:23:06;36.75;;;14.60;;
71435;SDS011;59251;51.326;12.370;2023-02-15T01:25:32;40.15;;;15.70;;
71435;SDS011;59251;51.326;12.370;2023-02-15T01:27:59;37.67;;;16.43;;
71435;SDS011;59251;51.326;12.370;2023-02-15T01:30:24;36.95;;;16.15;;
71435;SDS011;59251;51.326;12.370;2023-02-15T01:32:50;36.43;;;16.13;;
71435;SDS011;59251;51.326;12.370;2023-02-15T01:35:15;38.23;;;16.73;;
71435;SDS011;59251;51.326;12.370;2023-02-15T01:37:40;40.83;;;16.13;;
71435;SDS011;59251;51.326;12.370;2023-02-15T01:40:07;43.63;;;17.42;;
71435;SDS011;59251;51.326;12.370;2023-02-15T01:42:37;39.37;;;16.70;;
71435;SDS011;59251;51.326;12.370;2023-02-15T01:45:03;45.90;;;17.63;;
71435;SDS011;59251;51.326;12.370;2023-02-15T01:50:36;43.03;;;17.55;;
71435;SDS011;59251;51.326;12.370;2023-02-15T01:55:44;41.45;;;18.02;;
71435;SDS011;59251;51.326;12.370;2023-02-15T01:58:15;37.90;;;15.60;;
71435;SDS011;59251;51.326;12.370;2023-02-15T02:00:41;37.78;;;16.15;;
71435;SDS011;59251;51.326;12.370;2023-02-15T02:03:06;37.85;;;15.95;;
71435;SDS011;59251;51.326;12.370;2023-02-15T02:05:32;38.03;;;15.60;;
71435;SDS011;59251;51.326;12.370;2023-02-15T02:07:58;36.83;;;16.07;;
71435;SDS011;59251;51.326;12.370;2023-02-15T02:10:26;33.60;;;14.65;;
71435;SDS011;59251;51.326;12.370;2023-02-15T02:12:53;35.78;;;15.10;;
71435;SDS011;59251;51.326;12.370;2023-02-15T02:15:23;36.50;;;15.38;;
71435;SDS011;59251;51.326;12.370;2023-02-15T02:44:49;30.33;;;12.77;;
71435;SDS011;59251;51.326;12.370;2023-02-15T02:47:23;33.20;;;13.25;;
71435;SDS011;59251;51.326;12.370;2023-02-15T02:50:14;31.00;;;13.25;;
71435;SDS011;59251;51.326;12.370;2023-02-15T02:52:46;34.00;;;14.23;;
71435;SDS011;59251;51.326;12.370;2023-02-15T02:55:21;34.28;;;14.32;;
71435;SDS011;59251;51.326;12.370;2023-02-15T03:00:52;30.67;;;13.27;;
71435;SDS011;59251;51.326;12.370;2023-02-15T03:06:14;38.70;;;15.55;;
71435;SDS011;59251;51.326;12.370;2023-02-15T03:08:44;37.00;;;14.73;;
71435;SDS011;59251;51.326;12.370;2023-02-15T03:11:13;35.10;;;15.40;;
71435;SDS011;59251;51.326;12.370;2023-02-15T03:13:39;37.15;;;15.30;;
71435;SDS011;59251;51.326;12.370;2023-02-15T03:16:04;32.50;;;15.20;;
71435;SDS011;59251;51.326;12.370;2023-02-15T03:22:08;40.33;;;14.82;;
71435;SDS011;59251;51.326;12.370;2023-02-15T03:24:22;32.78;;;13.60;;
71435;SDS011;59251;51.326;12.370;2023-02-15T03:26:51;33.87;;;13.43;;
71435;SDS011;59251;51.326;12.370;2023-02-15T03:29:19;34.38;;;14.18;;
71435;SDS011;59251;51.326;12.370;2023-02-15T03:31:48;32.45;;;13.70;;
71435;SDS011;59251;51.326;12.370;2023-02-15T03:34:18;30.42;;;12.65;;
71435;SDS011;59251;51.326;12.370;2023-02-15T03:36:50;32.93;;;13.43;;
71435;SDS011;59251;51.326;12.370;2023-02-15T03:42:10;32.25;;;14.27;;
71435;SDS011;59251;51.326;12.370;2023-02-15T03:44:45;33.22;;;12.95;;
71435;SDS011;59251;51.326;12.370;2023-02-15T03:47:30;30.63;;;13.60;;
71435;SDS011;59251;51.326;12.370;2023-02-15T03:53:24;29.23;;;12.45;;
71435;SDS011;59251;51.326;12.370;2023-02-15T03:55:53;28.55;;;12.35;;
71435;SDS011;59251;51.326;12.370;2023-02-15T03:58:19;27.88;;;12.32;;
71435;SDS011;59251;51.326;12.370;2023-02-15T04:01:05;30.57;;;12.30;;
71435;SDS011;59251;51.326;12.370;2023-02-15T04:03:59;31.38;;;12.32;;
71435;SDS011;59251;51.326;12.370;2023-02-15T04:06:27;29.30;;;12.60;;
71435;SDS011;59251;51.326;12.370;2023-02-15T04:08:53;27.00;;;11.63;;
71435;SDS011;59251;51.326;12.370;2023-02-15T04:11:37;25.85;;;11.65;;
71435;SDS011;59251;51.326;12.370;2023-02-15T04:14:02;23.90;;;11.03;;
71435;SDS011;59251;51.326;12.370;2023-02-15T04:16:47;26.00;;;11.95;;
71435;SDS011;59251;51.326;12.370;2023-02-15T04:19:13;26.60;;;10.77;;
71435;SDS011;59251;51.326;12.370;2023-02-15T04:21:56;29.65;;;12.45;;
71435;SDS011;59251;51.326;12.370;2023-02-15T04:24:40;31.52;;;13.27;;
71435;SDS011;59251;51.326;12.370;2023-02-15T04:27:24;29.83;;;12.47;;
71435;SDS011;59251;51.326;12.370;2023-02-15T04:29:50;30.55;;;13.35;;
71435;SDS011;59251;51.326;12.370;2023-02-15T04:32:15;29.77;;;11.77;;
71435;SDS011;59251;51.326;12.370;2023-02-15T04:34:40;26.67;;;11.77;;
71435;SDS011;59251;51.326;12.370;2023-02-15T04:37:06;24.93;;;11.00;;
71435;SDS011;59251;51.326;12.370;2023-02-15T04:39:31;26.30;;;11.40;;
71435;SDS011;59251;51.326;12.370;2023-02-15T04:41:57;27.47;;;11.93;;
71435;SDS011;59251;51.326;12.370;2023-02-15T04:44:22;24.20;;;10.55;;
71435;SDS011;59251;51.326;12.370;2023-02-15T04:46:47;27.30;;;11.67;;
71435;SDS011;59251;51.326;12.370;2023-02-15T04:49:13;25.37;;;10.40;;
71435;SDS011;59251;51.326;12.370;2023-02-15T04:51:38;27.63;;;11.00;;
71435;SDS011;59251;51.326;12.370;2023-02-15T04:54:04;25.57;;;11.13;;
71435;SDS011;59251;51.326;12.370;2023-02-15T04:56:29;27.67;;;11.27;;
71435;SDS011;59251;51.326;12.370;2023-02-15T04:58:56;24.05;;;11.25;;
71435;SDS011;59251;51.326;12.370;2023-02-15T05:01:21;29.33;;;12.10;;
71435;SDS011;59251;51.326;12.370;2023-02-15T05:03:46;23.42;;;10.52;;
71435;SDS011;59251;51.326;12.370;2023-02-15T05:06:12;26.55;;;11.00;;
71435;SDS011;59251;51.326;12.370;2023-02-15T05:08:37;25.60;;;10.30;;
71435;SDS011;59251;51.326;12.370;2023-02-15T05:11:02;25.10;;;10.63;;
71435;SDS011;59251;51.326;12.370;2023-02-15T05:13:28;22.50;;;10.30;;
71435;SDS011;59251;51.326;12.370;2023-02-15T05:15:53;22.83;;;10.60;;
71435;SDS011;59251;51.326;12.370;2023-02-15T05:18:19;24.37;;;10.00;;
71435;SDS011;59251;51.326;12.370;2023-02-15T05:20:46;23.77;;;10.10;;
71435;SDS011;59251;51.326;12.370;2023-02-15T05:23:11;22.35;;;10.70;;
71435;SDS011;59251;51.326;12.370;2023-02-15T05:25:37;25.27;;;10.27;;
71435;SDS011;59251;51.326;12.370;2023-02-15T05:28:22;25.45;;;11.20;;
71435;SDS011;59251;51.326;12.370;2023-02-15T05:31:11;25.63;;;10.93;;
71435;SDS011;59251;51.326;12.370;2023-02-15T05:33:36;24.63;;;10.90;;
71435;SDS011;59251;51.326;12.370;2023-02-15T05:36:02;26.08;;;10.93;;
71435;SDS011;59251;51.326;12.370;2023-02-15T05:38:28;26.70;;;11.43;;
71435;SDS011;59251;51.326;12.370;2023-02-15T05:40:53;25.23;;;11.13;;
71435;SDS011;59251;51.326;12.370;2023-02-15T05:43:19;25.88;;;11.57;;
71435;SDS011;59251;51.326;12.370;2023-02-15T05:45:48;28.23;;;11.80;;
71435;SDS011;59251;51.326;12.370;2023-02-15T05:48:15;24.77;;;10.80;;
71435;SDS011;59251;51.326;12.370;2023-02-15T05:50:41;26.88;;;11.38;;
71435;SDS011;59251;51.326;12.370;2023-02-15T05:53:06;28.83;;;12.60;;
71435;SDS011;59251;51.326;12.370;2023-02-15T05:55:31;27.15;;;11.20;;
71435;SDS011;59251;51.326;12.370;2023-02-15T05:57:57;25.08;;;11.18;;
71435;SDS011;59251;51.326;12.370;2023-02-15T06:00:22;22.17;;;9.90;;
71435;SDS011;59251;51.326;12.370;2023-02-15T06:02:48;26.10;;;11.83;;
71435;SDS011;59251;51.326;12.370;2023-02-15T06:05:13;24.45;;;10.95;;
71435;SDS011;59251;51.326;12.370;2023-02-15T06:07:39;23.92;;;9.60;;
71435;SDS011;59251;51.326;12.370;2023-02-15T06:10:07;22.98;;;10.25;;
71435;SDS011;59251;51.326;12.370;2023-02-15T06:12:32;28.20;;;12.43;;
71435;SDS011;59251;51.326;12.370;2023-02-15T06:14:58;21.30;;;9.60;;
71435;SDS011;59251;51.326;12.370;2023-02-15T06:17:23;28.67;;;11.30;;
71435;SDS011;59251;51.326;12.370;2023-02-15T06:19:49;25.67;;;9.67;;
71435;SDS011;59251;51.326;12.370;2023-02-15T06:22:14;25.43;;;10.93;;
71435;SDS011;59251;51.326;12.370;2023-02-15T06:24:39;25.90;;;10.52;;
71435;SDS011;59251;51.326;12.370;2023-02-15T06:27:07;25.63;;;10.60;;
71435;SDS011;59251;51.326;12.370;2023-02-15T06:29:32;23.83;;;10.45;;
71435;SDS011;59251;51.326;12.370;2023-02-15T06:31:58;25.60;;;10.07;;
71435;SDS011;59251;51.326;12.370;2023-02-15T06:34:23;25.00;;;9.97;;
71435;SDS011;59251;51.326;12.370;2023-02-15T06:36:49;22.67;;;10.30;;
71435;SDS011;59251;51.326;12.370;2023-02-15T06:39:14;27.37;;;11.20;;
71435;SDS011;59251;51.326;12.370;2023-02-15T06:41:39;27.23;;;11.90;;
71435;SDS011;59251;51.326;12.370;2023-02-15T06:44:05;24.37;;;11.00;;
71435;SDS011;59251;51.326;12.370;2023-02-15T06:46:30;24.90;;;11.27;;
71435;SDS011;59251;51.326;12.370;2023-02-15T06:48:56;26.80;;;11.50;;
71435;SDS011;59251;51.326;12.370;2023-02-15T06:51:21;24.07;;;10.30;;
71435;SDS011;59251;51.326;12.370;2023-02-15T06:53:46;31.00;;;11.80;;
71435;SDS011;59251;51.326;12.370;2023-02-15T06:56:12;26.38;;;10.98;;
71435;SDS011;59251;51.326;12.370;2023-02-15T06:58:38;26.52;;;10.77;;
71435;SDS011;59251;51.326;12.370;2023-02-15T07:01:04;29.42;;;11.25;;
71435;SDS011;59251;51.326;12.370;2023-02-15T07:03:30;25.77;;;10.77;;
71435;SDS011;59251;51.326;12.370;2023-02-15T07:05:57;21.95;;;10.05;;
71435;SDS011;59251;51.326;12.370;2023-02-15T07:08:24;23.63;;;9.80;;
71435;SDS011;59251;51.326;12.370;2023-02-15T07:10:50;24.88;;;10.23;;
71435;SDS011;59251;51.326;12.370;2023-02-15T07:13:17;22.83;;;9.48;;
71435;SDS011;59251;51.326;12.370;2023-02-15T07:15:43;24.43;;;9.67;;
71435;SDS011;59251;51.326;12.370;2023-02-15T07:18:09;23.02;;;9.95;;
71435;SDS011;59251;51.326;12.370;2023-02-15T07:20:35;22.10;;;8.95;;
71435;SDS011;59251;51.326;12.370;2023-02-15T07:23:02;22.15;;;9.75;;
71435;SDS011;59251;51.326;12.370;2023-02-15T07:25:28;23.67;;;9.20;;
71435;SDS011;59251;51.326;12.370;2023-02-15T07:27:57;24.27;;;9.23;;
71435;SDS011;59251;51.326;12.370;2023-02-15T07:30:23;23.13;;;9.52;;
71435;SDS011;59251;51.326;12.370;2023-02-15T07:32:49;20.37;;;8.80;;
71435;SDS011;59251;51.326;12.370;2023-02-15T07:35:33;23.75;;;8.90;;
71435;SDS011;59251;51.326;12.370;2023-02-15T07:37:59;22.67;;;8.17;;
71435;SDS011;59251;51.326;12.370;2023-02-15T07:40:25;18.80;;;8.15;;
71435;SDS011;59251;51.326;12.370;2023-02-15T07:42:50;20.50;;;8.38;;
71435;SDS011;59251;51.326;12.370;2023-02-15T07:45:18;20.97;;;8.93;;
71435;SDS011;59251;51.326;12.370;2023-02-15T07:47:44;19.95;;;8.20;;
71435;SDS011;59251;51.326;12.370;2023-02-15T07:50:09;18.92;;;8.18;;
71435;SDS011;59251;51.326;12.370;2023-02-15T07:52:34;18.07;;;8.50;;
71435;SDS011;59251;51.326;12.370;2023-02-15T07:55:00;20.40;;;8.20;;
71435;SDS011;59251;51.326;12.370;2023-02-15T07:57:25;18.67;;;7.77;;
71435;SDS011;59251;51.326;12.370;2023-02-15T07:59:50;18.30;;;7.27;;
71435;SDS011;59251;51.326;12.370;2023-02-15T08:02:16;15.57;;;6.80;;
71435;SDS011;59251;51.326;12.370;2023-02-15T08:04:41;18.73;;;7.57;;
71435;SDS011;59251;51.326;12.370;2023-02-15T08:07:06;16.30;;;7.37;;
71435;SDS011;59251;51.326;12.370;2023-02-15T08:09:32;16.88;;;7.28;;
71435;SDS011;59251;51.326;12.370;2023-02-15T08:11:58;16.87;;;6.97;;
71435;SDS011;59251;51.326;12.370;2023-02-15T08:14:23;17.23;;;7.33;;
71435;SDS011;59251;51.326;12.370;2023-02-15T08:16:49;16.70;;;6.77;;
71435;SDS011;59251;51.326;12.370;2023-02-15T08:19:17;18.60;;;7.65;;
71435;SDS011;59251;51.326;12.370;2023-02-15T08:21:43;17.73;;;7.90;;
71435;SDS011;59251;51.326;12.370;2023-02-15T08:24:10;20.35;;;7.22;;
71435;SDS011;59251;51.326;12.370;2023-02-15T08:26:37;17.08;;;6.50;;
71435;SDS011;59251;51.326;12.370;2023-02-15T08:29:04;14.53;;;6.37;;
71435;SDS011;59251;51.326;12.370;2023-02-15T08:31:31;16.17;;;6.95;;
71435;SDS011;59251;51.326;12.370;2023-02-15T08:33:57;16.25;;;6.78;;
71435;SDS011;59251;51.326;12.370;2023-02-15T08:36:24;15.70;;;6.60;;
71435;SDS011;59251;51.326;12.370;2023-02-15T08:38:52;13.18;;;5.93;;
71435;SDS011;59251;51.326;12.370;2023-02-15T08:43:47;13.32;;;5.88;;
71435;SDS011;59251;51.326;12.370;2023-02-15T08:46:16;16.67;;;6.35;;
71435;SDS011;59251;51.326;12.370;2023-02-15T08:48:42;13.73;;;5.95;;
71435;SDS011;59251;51.326;12.370;2023-02-15T08:53:35;12.27;;;5.03;;
71435;SDS011;59251;51.326;12.370;2023-02-15T08:56:00;14.40;;;5.10;;
71435;SDS011;59251;51.326;12.370;2023-02-15T08:58:26;12.13;;;5.17;;
71435;SDS011;59251;51.326;12.370;2023-02-15T09:00:52;12.35;;;5.00;;
71435;SDS011;59251;51.326;12.370;2023-02-15T09:03:18;11.30;;;4.73;;
71435;SDS011;59251;51.326;12.370;2023-02-15T09:05:43;11.70;;;4.67;;
71435;SDS011;59251;51.326;12.370;2023-02-15T09:08:08;10.73;;;4.50;;
71435;SDS011;59251;51.326;12.370;2023-02-15T09:10:34;12.30;;;4.97;;
71435;SDS011;59251;51.326;12.370;2023-02-15T09:12:59;11.30;;;4.70;;
71435;SDS011;59251;51.326;12.370;2023-02-15T09:15:24;12.55;;;4.70;;
71435;SDS011;59251;51.326;12.370;2023-02-15T09:17:50;11.38;;;4.88;;
71435;SDS011;59251;51.326;12.370;2023-02-15T09:20:15;11.23;;;4.37;;
71435;SDS011;59251;51.326;12.370;2023-02-15T09:22:41;11.07;;;4.17;;
71435;SDS011;59251;51.326;12.370;2023-02-15T09:25:06;12.30;;;4.37;;
71435;SDS011;59251;51.326;12.370;2023-02-15T09:27:32;11.43;;;4.88;;
71435;SDS011;59251;51.326;12.370;2023-02-15T09:29:57;10.47;;;4.60;;
71435;SDS011;59251;51.326;12.370;2023-02-15T09:32:23;11.13;;;4.70;;
71435;SDS011;59251;51.326;12.370;2023-02-15T09:34:48;10.20;;;4.03;;
71435;SDS011;59251;51.326;12.370;2023-02-15T09:37:13;11.13;;;4.03;;
71435;SDS011;59251;51.326;12.370;2023-02-15T09:39:39;9.93;;;4.45;;
71435;SDS011;59251;51.326;12.370;2023-02-15T09:48:09;10.60;;;4.13;;
71435;SDS011;59251;51.326;12.370;2023-02-15T09:51:04;9.73;;;3.88;;
71435;SDS011;59251;51.326;12.370;2023-02-15T10:01:59;13.65;;;3.80;;
71435;SDS011;59251;51.326;12.370;2023-02-15T10:10:07;10.50;;;4.13;;
71435;SDS011;59251;51.326;12.370;2023-02-15T10:12:59;10.15;;;3.70;;
71435;SDS011;59251;51.326;12.370;2023-02-15T10:18:32;9.13;;;3.65;;
71435;SDS011;59251;51.326;12.370;2023-02-15T10:29:30;11.85;;;4.22;;
71435;SDS011;59251;51.326;12.370;2023-02-15T10:32:22;9.93;;;4.13;;
71435;SDS011;59251;51.326;12.370;2023-02-15T10:34:51;11.43;;;4.50;;
71435;SDS011;59251;51.326;12.370;2023-02-15T10:40:02;10.15;;;4.10;;
71435;SDS011;59251;51.326;12.370;2023-02-15T10:48:54;8.93;;;4.30;;
71435;SDS011;59251;51.326;12.370;2023-02-15T11:05:25;13.10;;;4.18;;
71435;SDS011;59251;51.326;12.370;2023-02-15T11:08:03;11.68;;;4.65;;
71435;SDS011;59251;51.326;12.370;2023-02-15T11:10:50;16.25;;;4.60;;
71435;SDS011;59251;51.326;12.370;2023-02-15T11:13:20;11.10;;;4.35;;
71435;SDS011;59251;51.326;12.370;2023-02-15T11:15:53;10.17;;;4.33;;
71435;SDS011;59251;51.326;12.370;2023-02-15T11:20:58;10.85;;;4.30;;
71435;SDS011;59251;51.326;12.370;2023-02-15T11:23:24;10.13;;;4.13;;
71435;SDS011;59251;51.326;12.370;2023-02-15T11:25:53;11.38;;;4.60;;
71435;SDS011;59251;51.326;12.370;2023-02-15T11:28:24;14.17;;;4.10;;
71435;SDS011;59251;51.326;12.370;2023-02-15T11:30:55;11.30;;;4.60;;
71435;SDS011;59251;51.326;12.370;2023-02-15T11:33:26;13.52;;;4.53;;
71435;SDS011;59251;51.326;12.370;2023-02-15T11:36:09;11.43;;;3.97;;
71435;SDS011;59251;51.326;12.370;2023-02-15T11:38:42;9.70;;;3.83;;
71435;SDS011;59251;51.326;12.370;2023-02-15T11:46:25;10.65;;;4.28;;
71435;SDS011;59251;51.326;12.370;2023-02-15T11:48:50;10.33;;;3.97;;
71435;SDS011;59251;51.326;12.370;2023-02-15T11:51:16;12.10;;;4.40;;
71435;SDS011;59251;51.326;12.370;2023-02-15T11:53:44;10.30;;;3.97;;
71435;SDS011;59251;51.326;12.370;2023-02-15T11:56:18;12.25;;;3.95;;
71435;SDS011;59251;51.326;12.370;2023-02-15T11:58:47;9.90;;;3.70;;
71435;SDS011;59251;51.326;12.370;2023-02-15T12:01:32;10.48;;;3.90;;
71435;SDS011;59251;51.326;12.370;2023-02-15T12:03:58;10.93;;;3.43;;
71435;SDS011;59251;51.326;12.370;2023-02-15T12:06:28;13.20;;;4.57;;
71435;SDS011;59251;51.326;12.370;2023-02-15T12:09:12;10.48;;;3.60;;
71435;SDS011;59251;51.326;12.370;2023-02-15T12:11:51;8.98;;;3.72;;
71435;SDS011;59251;51.326;12.370;2023-02-15T12:14:16;8.63;;;3.57;;
71435;SDS011;59251;51.326;12.370;2023-02-15T12:21:48;11.20;;;4.50;;
71435;SDS011;59251;51.326;12.370;2023-02-15T12:26:44;9.77;;;4.20;;
71435;SDS011;59251;51.326;12.370;2023-02-15T12:29:20;11.85;;;4.10;;
71435;SDS011;59251;51.326;12.370;2023-02-15T12:31:50;10.90;;;4.18;;
71435;SDS011;59251;51.326;12.370;2023-02-15T12:34:32;11.63;;;4.75;;
71435;SDS011;59251;51.326;12.370;2023-02-15T12:37:10;11.10;;;4.50;;
71435;SDS011;59251;51.326;12.370;2023-02-15T12:39:55;11.87;;;3.87;;
71435;SDS011;59251;51.326;12.370;2023-02-15T12:42:23;9.65;;;3.90;;
71435;SDS011;59251;51.326;12.370;2023-02-15T12:47:23;9.80;;;4.13;;
71435;SDS011;59251;51.326;12.370;2023-02-15T12:52:46;8.40;;;4.03;;
71435;SDS011;59251;51.326;12.370;2023-02-15T12:55:20;9.73;;;3.63;;
71435;SDS011;59251;51.326;12.370;2023-02-15T12:57:48;9.70;;;4.70;;
71435;SDS011;59251;51.326;12.370;2023-02-15T13:02:47;10.23;;;3.90;;
71435;SDS011;59251;51.326;12.370;2023-02-15T13:05:18;9.13;;;3.63;;
71435;SDS011;59251;51.326;12.370;2023-02-15T13:07:49;8.65;;;3.92;;
71435;SDS011;59251;51.326;12.370;2023-02-15T13:10:24;8.60;;;3.47;;
71435;SDS011;59251;51.326;12.370;2023-02-15T13:12:54;9.15;;;3.65;;
71435;SDS011;59251;51.326;12.370;2023-02-15T13:15:23;8.70;;;3.97;;
71435;SDS011;59251;51.326;12.370;2023-02-15T13:17:50;8.50;;;3.63;;
71435;SDS011;59251;51.326;12.370;2023-02-15T13:20:19;7.28;;;3.00;;
71435;SDS011;59251;51.326;12.370;2023-02-15T13:22:50;7.13;;;3.10;;
71435;SDS011;59251;51.326;12.370;2023-02-15T13:25:22;8.68;;;2.80;;
71435;SDS011;59251;51.326;12.370;2023-02-15T13:27:58;8.10;;;3.50;;
71435;SDS011;59251;51.326;12.370;2023-02-15T13:30:33;7.43;;;3.60;;
71435;SDS011;59251;51.326;12.370;2023-02-15T13:33:03;10.38;;;3.03;;
71435;SDS011;59251;51.326;12.370;2023-02-15T13:35:39;7.47;;;2.87;;
71435;SDS011;59251;51.326;12.370;2023-02-15T13:41:06;8.52;;;3.00;;
71435;SDS011;59251;51.326;12.370;2023-02-15T13:46:33;6.97;;;2.72;;
71435;SDS011;59251;51.326;12.370;2023-02-15T13:49:03;8.37;;;2.87;;
71435;SDS011;59251;51.326;12.370;2023-02-15T13:52:32;10.68;;;2.85;;
71435;SDS011;59251;51.326;12.370;2023-02-15T14:08:18;9.35;;;2.90;;
71435;SDS011;59251;51.326;12.370;2023-02-15T14:10:58;7.15;;;3.05;;
71435;SDS011;59251;51.326;12.370;2023-02-15T14:13:47;7.10;;;3.30;;
71435;SDS011;59251;51.326;12.370;2023-02-15T14:16:39;8.07;;;2.40;;
71435;SDS011;59251;51.326;12.370;2023-02-15T14:21:47;6.18;;;2.50;;
71435;SDS011;59251;51.326;12.370;2023-02-15T14:24:44;8.18;;;2.70;;
71435;SDS011;59251;51.326;12.370;2023-02-15T14:30:55;9.50;;;2.88;;
71435;SDS011;59251;51.326;12.370;2023-02-15T14:36:17;8.35;;;2.90;;
71435;SDS011;59251;51.326;12.370;2023-02-15T14:38:48;7.78;;;2.97;;
71435;SDS011;59251;51.326;12.370;2023-02-15T14:41:24;8.17;;;2.57;;
71435;SDS011;59251;51.326;12.370;2023-02-15T14:49:17;7.00;;;2.60;;
71435;SDS011;59251;51.326;12.370;2023-02-15T14:56:46;6.77;;;2.77;;
71435;SDS011;59251;51.326;12.370;2023-02-15T15:04:37;9.07;;;3.03;;
71435;SDS011;59251;51.326;12.370;2023-02-15T15:07:22;7.13;;;3.15;;
71435;SDS011;59251;51.326;12.370;2023-02-15T15:10:00;7.90;;;3.30;;
71435;SDS011;59251;51.326;12.370;2023-02-15T15:15:09;8.10;;;2.97;;
71435;SDS011;59251;51.326;12.370;2023-02-15T15:22:31;11.10;;;3.20;;
71435;SDS011;59251;51.326;12.370;2023-02-15T15:25:01;9.18;;;3.25;;
71435;SDS011;59251;51.326;12.370;2023-02-15T15:40:55;9.82;;;2.92;;
71435;SDS011;59251;51.326;12.370;2023-02-15T15:49:20;13.60;;;4.10;;
71435;SDS011;59251;51.326;12.370;2023-02-15T15:51:48;10.75;;;3.50;;
71435;SDS011;59251;51.326;12.370;2023-02-15T15:54:18;11.50;;;3.80;;
71435;SDS011;59251;51.326;12.370;2023-02-15T15:56:55;12.98;;;4.00;;
71435;SDS011;59251;51.326;12.370;2023-02-15T15:59:31;9.02;;;3.45;;
71435;SDS011;59251;51.326;12.370;2023-02-15T16:02:06;11.13;;;3.38;;
71435;SDS011;59251;51.326;12.370;2023-02-15T16:04:35;15.15;;;4.35;;
71435;SDS011;59251;51.326;12.370;2023-02-15T16:07:14;10.73;;;3.50;;
71435;SDS011;59251;51.326;12.370;2023-02-15T16:12:20;11.38;;;4.00;;
71435;SDS011;59251;51.326;12.370;2023-02-15T16:14:45;15.47;;;4.13;;
71435;SDS011;59251;51.326;12.370;2023-02-15T16:17:22;15.13;;;4.38;;
71435;SDS011;59251;51.326;12.370;2023-02-15T16:19:57;10.50;;;3.75;;
71435;SDS011;59251;51.326;12.370;2023-02-15T16:22:26;16.27;;;4.63;;
71435;SDS011;59251;51.326;12.370;2023-02-15T16:27:51;15.30;;;4.63;;
71435;SDS011;59251;51.326;12.370;2023-02-15T16:33:33;12.30;;;4.15;;
71435;SDS011;59251;51.326;12.370;2023-02-15T16:36:00;11.20;;;4.25;;
71435;SDS011;59251;51.326;12.370;2023-02-15T16:41:25;14.10;;;4.38;;
71435;SDS011;59251;51.326;12.370;2023-02-15T16:43:53;10.93;;;4.45;;
71435;SDS011;59251;51.326;12.370;2023-02-15T16:46:53;12.00;;;4.78;;
71435;SDS011;59251;51.326;12.370;2023-02-15T16:49:32;11.40;;;4.10;;
71435;SDS011;59251;51.326;12.370;2023-02-15T16:52:02;10.18;;;4.22;;
71435;SDS011;59251;51.326;12.370;2023-02-15T16:54:31;15.10;;;4.45;;
71435;SDS011;59251;51.326;12.370;2023-02-15T16:56:57;14.32;;;4.72;;
71435;SDS011;59251;51.326;12.370;2023-02-15T16:59:31;10.40;;;4.60;;
71435;SDS011;59251;51.326;12.370;2023-02-15T17:01:58;14.50;;;5.30;;
71435;SDS011;59251;51.326;12.370;2023-02-15T17:09:23;15.00;;;4.75;;
71435;SDS011;59251;51.326;12.370;2023-02-15T17:11:50;11.90;;;4.78;;
71435;SDS011;59251;51.326;12.370;2023-02-15T17:14:19;10.93;;;4.17;;
71435;SDS011;59251;51.326;12.370;2023-02-15T17:16:47;12.75;;;4.78;;
71435;SDS011;59251;51.326;12.370;2023-02-15T17:19:48;12.45;;;4.63;;
71435;SDS011;59251;51.326;12.370;2023-02-15T17:22:20;12.70;;;4.37;;
71435;SDS011;59251;51.326;12.370;2023-02-15T17:24:57;13.85;;;4.70;;
71435;SDS011;59251;51.326;12.370;2023-02-15T17:27:25;9.23;;;4.22;;
71435;SDS011;59251;51.326;12.370;2023-02-15T17:29:57;11.07;;;4.22;;
71435;SDS011;59251;51.326;12.370;2023-02-15T17:32:26;10.68;;;4.20;;
71435;SDS011;59251;51.326;12.370;2023-02-15T17:37:28;18.88;;;4.68;;
71435;SDS011;59251;51.326;12.370;2023-02-15T17:39:56;11.23;;;4.15;;
71435;SDS011;59251;51.326;12.370;2023-02-15T17:42:22;12.48;;;5.40;;
71435;SDS011;59251;51.326;12.370;2023-02-15T17:44:48;18.37;;;7.70;;
71435;SDS011;59251;51.326;12.370;2023-02-15T17:47:18;16.40;;;6.65;;
71435;SDS011;59251;51.326;12.370;2023-02-15T17:49:45;15.15;;;7.00;;
71435;SDS011;59251;51.326;12.370;2023-02-15T17:52:14;16.47;;;7.33;;
71435;SDS011;59251;51.326;12.370;2023-02-15T17:54:41;16.45;;;6.82;;
71435;SDS011;59251;51.326;12.370;2023-02-15T17:57:25;14.65;;;6.32;;
71435;SDS011;59251;51.326;12.370;2023-02-15T17:59:51;14.73;;;6.65;;
71435;SDS011;59251;51.326;12.370;2023-02-15T18:02:35;14.27;;;6.68;;
71435;SDS011;59251;51.326;12.370;2023-02-15T18:05:19;15.23;;;6.80;;
71435;SDS011;59251;51.326;12.370;2023-02-15T18:08:05;16.52;;;6.88;;
71435;SDS011;59251;51.326;12.370;2023-02-15T18:10:54;13.30;;;6.22;;
71435;SDS011;59251;51.326;12.370;2023-02-15T18:13:38;16.20;;;6.97;;